Item Display Status Serial CT Sensor

Mooring Depth: 1 m

 

Deployed Sensor

  • Serial Number: 12506
  • NDBC Property Number: 38945
  • Start Date: 4/17/2020 (11:11:26 Z)
  • End Date: Currently Active
Water Temperature [°C]     6 entries per hour
Showing data from 9/19/2020 (22:00:00 Z) to 9/18/2020 (00:00:01 Z)
Previous Next [ Day | 3-Days | 7-Days ]
First Last
Prev [ Day | 3-Days | 7-Days ] Next
First Last

Start Time:     :
End Time:     :     
Time (in GMT) :00 :50 :40 :30 :20 :10
Previous Next [ Day | 3-Days | 7-Days ]
First Last
Prev [ Day | 3-Days | 7-Days ] Next
First Last


123 => good data
MM => data is determined as missing
-- => data not received/configured
Back to Top Back to Top
9/19/2020 22:00 to 21:10 23.365 23.361 23.360 23.361 23.370 23.372
9/19/2020 21:00 to 20:10 23.377 23.401 23.414 23.387 23.397 23.404
9/19/2020 20:00 to 19:10 23.400 23.390 23.393 23.397 23.394 23.387
9/19/2020 19:00 to 18:10 23.387 23.391 23.398 23.395 23.390 23.366
9/19/2020 18:00 to 17:10 23.342 23.339 23.346 23.313 23.302 23.306
9/19/2020 17:00 to 16:10 23.315 23.324 23.279 23.269 23.257 23.252
9/19/2020 16:00 to 15:10 23.236 23.241 23.222 23.215 23.208 23.204
9/19/2020 15:00 to 14:10 23.207 23.202 23.201 23.205 23.200 23.195
9/19/2020 14:00 to 13:10 23.193 23.191 23.192 23.186 23.195 23.192
9/19/2020 13:00 to 12:10 23.194 23.198 23.203 23.202 23.200 23.202
9/19/2020 12:00 to 11:10 23.185 23.196 23.188 23.197 23.213 23.198
9/19/2020 11:00 to 10:10 23.205 23.204 23.205 23.210 23.210 23.192
9/19/2020 10:00 to 9:10 23.201 23.206 23.201 23.193 23.186 23.179
9/19/2020 09:00 to 8:10 23.182 23.178 23.183 23.179 23.174 23.176
9/19/2020 08:00 to 7:10 23.184 23.190 23.190 23.199 23.205 23.195
9/19/2020 07:00 to 6:10 23.202 23.205 23.202 23.207 23.205 23.203
9/19/2020 06:00 to 5:10 23.192 23.196 23.184 23.199 23.177 23.188
9/19/2020 05:00 to 4:10 23.191 23.189 23.199 23.200 23.202 23.193
9/19/2020 04:00 to 3:10 23.205 23.210 23.213 23.207 23.208 23.210
9/19/2020 03:00 to 2:10 23.204 23.210 23.214 23.197 23.180 23.190
9/19/2020 02:00 to 1:10 23.189 23.183 23.178 23.167 23.172 23.160
9/19/2020 01:00 to 0:10 23.157 23.163 23.176 23.160 23.129 23.135
9/19/2020 00:00 to 23:10 23.126 23.129 23.126 23.116 23.112 23.131
9/18/2020 23:00 to 22:10 23.127 23.108 23.093 23.085 23.091 23.080
9/18/2020 22:00 to 21:10 23.092 23.096 23.096 23.108 23.116 23.107
9/18/2020 21:00 to 20:10 23.100 23.093 23.084 23.063 23.064 23.040
9/18/2020 20:00 to 19:10 23.026 23.029 23.030 23.045 23.029 23.033
9/18/2020 19:00 to 18:10 23.036 23.049 23.036 23.011 22.969 22.966
9/18/2020 18:00 to 17:10 22.962 22.957 22.956 22.925 22.911 22.900
9/18/2020 17:00 to 16:10 22.897 22.904 22.871 22.876 22.850 22.822
9/18/2020 16:00 to 15:10 22.802 22.791 22.806 22.798 22.801 22.793
9/18/2020 15:00 to 14:10 22.799 22.825 22.875 22.870 22.865 22.877
9/18/2020 14:00 to 13:10 22.895 22.899 22.905 22.895 22.901 22.896
9/18/2020 13:00 to 12:10 22.902 22.892 22.910 22.917 22.925 22.904
9/18/2020 12:00 to 11:10 22.913 22.910 22.920 22.905 22.903 22.902
9/18/2020 11:00 to 10:10 22.894 22.898 22.894 22.888 22.897 22.896
9/18/2020 10:00 to 9:10 22.903 22.885 22.912 22.891 22.912 22.906
9/18/2020 09:00 to 8:10 22.923 22.933 22.914 22.934 22.917 22.913
9/18/2020 08:00 to 7:10 22.910 22.945 22.932 22.937 22.945 22.994
9/18/2020 07:00 to 6:10 22.998 22.999 23.012 22.994 23.019 23.021
9/18/2020 06:00 to 5:10 23.028 22.992 23.035 23.041 23.062 23.050
9/18/2020 05:00 to 4:10 23.045 23.056 23.070 23.079 23.071 23.078
9/18/2020 04:00 to 3:10 23.072 23.086 23.079 23.075 23.068 23.067
9/18/2020 03:00 to 2:10 23.084 23.076 23.074 23.067 23.046 23.022
9/18/2020 02:00 to 1:10 23.041 23.044 23.032 23.042 23.043 23.025
9/18/2020 01:00 to 0:10 23.024 23.041 23.033 23.021 23.008 23.014

 

 

 

Conductivity [S/m]     6 entries per hour
Showing data from 9/19/2020 (22:00:00 Z) to 9/18/2020 (00:00:01 Z)
Previous Next [ Day | 3-Days | 7-Days ]
First Last
Prev [ Day | 3-Days | 7-Days ] Next
First Last

Start Time:     :
End Time:     :     
Time (in GMT) :00 :50 :40 :30 :20 :10
Previous Next [ Day | 3-Days | 7-Days ]
First Last
Prev [ Day | 3-Days | 7-Days ] Next
First Last


123 => good data
MM => data is determined as missing
-- => data not received/configured
Back to Top Back to Top
9/19/2020 22:00 to 21:10 5.00019 5.00012 5.00001 5.00039 5.00198 5.00195
9/19/2020 21:00 to 20:10 5.00264 5.00619 5.00804 5.00524 5.00672 5.00750
9/19/2020 20:00 to 19:10 5.00722 5.00611 5.00632 5.00686 5.00635 5.00579
9/19/2020 19:00 to 18:10 5.00570 5.00647 5.00680 5.00709 5.00606 5.00364
9/19/2020 18:00 to 17:10 5.00167 5.00129 5.00186 4.99878 4.99804 4.99820
9/19/2020 17:00 to 16:10 4.99937 5.00031 4.99537 4.99395 4.99260 4.99269
9/19/2020 16:00 to 15:10 4.99036 4.99084 4.98871 4.98803 4.98713 4.98678
9/19/2020 15:00 to 14:10 4.98708 4.98672 4.98671 4.98679 4.98636 4.98572
9/19/2020 14:00 to 13:10 4.98541 4.98528 4.98501 4.98488 4.98493 4.98542
9/19/2020 13:00 to 12:10 4.98518 4.98551 4.98599 4.98599 4.98579 4.98593
9/19/2020 12:00 to 11:10 4.98500 4.98681 4.98700 4.98766 4.98782 4.98689
9/19/2020 11:00 to 10:10 4.98748 4.98758 4.98669 4.98764 4.98797 4.98622
9/19/2020 10:00 to 9:10 4.98685 4.98740 4.98736 4.98708 4.98586 4.98395
9/19/2020 09:00 to 8:10 4.98405 4.98347 4.98417 4.98401 4.98399 4.98362
9/19/2020 08:00 to 7:10 4.98428 4.98376 4.98452 4.98565 4.98615 4.98604
9/19/2020 07:00 to 6:10 4.98602 4.98644 4.98594 4.98691 4.98635 4.98630
9/19/2020 06:00 to 5:10 4.98551 4.98497 4.98475 4.98542 4.98393 4.98412
9/19/2020 05:00 to 4:10 4.98451 4.98467 4.98505 4.98540 4.98548 4.98510
9/19/2020 04:00 to 3:10 4.98623 4.98670 4.98682 4.98581 4.98632 4.98672
9/19/2020 03:00 to 2:10 4.98645 4.98733 4.98750 4.98617 4.98473 4.98521
9/19/2020 02:00 to 1:10 4.98431 4.98462 4.98446 4.98348 4.98389 4.98298
9/19/2020 01:00 to 0:10 4.98342 4.98345 4.98464 4.98311 4.98100 4.98165
9/19/2020 00:00 to 23:10 4.98067 4.98095 4.98030 4.97947 4.97920 4.98075
9/18/2020 23:00 to 22:10 4.98082 4.97919 4.97798 4.97704 4.97783 4.97715
9/18/2020 22:00 to 21:10 4.97814 4.97822 4.97830 4.97935 4.98029 4.97955
9/18/2020 21:00 to 20:10 4.97905 4.97800 4.97726 4.97553 4.97571 4.97395
9/18/2020 20:00 to 19:10 4.97253 4.97277 4.97297 4.97416 4.97293 4.97385
9/18/2020 19:00 to 18:10 4.97360 4.97554 4.97446 4.97231 4.96851 4.96834
9/18/2020 18:00 to 17:10 4.96789 4.96773 4.96795 4.96563 4.96456 4.96351
9/18/2020 17:00 to 16:10 4.96304 4.96370 4.96043 4.96084 4.95813 4.95602
9/18/2020 16:00 to 15:10 4.95412 4.95293 4.95441 4.95430 4.95454 4.95342
9/18/2020 15:00 to 14:10 4.95404 4.95618 4.95964 4.95967 4.95919 4.95990
9/18/2020 14:00 to 13:10 4.96112 4.96181 4.96202 4.96054 4.96177 4.96127
9/18/2020 13:00 to 12:10 4.96175 4.96094 4.96206 4.96275 4.96320 4.96186
9/18/2020 12:00 to 11:10 4.96263 4.96217 4.96306 4.96173 4.96190 4.96199
9/18/2020 11:00 to 10:10 4.96157 4.96131 4.96076 4.96063 4.96109 4.96089
9/18/2020 10:00 to 9:10 4.96188 4.96034 4.96244 4.96115 4.96240 4.96198
9/18/2020 09:00 to 8:10 4.96320 4.96416 4.96230 4.96396 4.96250 4.96245
9/18/2020 08:00 to 7:10 4.96240 4.96530 4.96426 4.96423 4.96472 4.96865
9/18/2020 07:00 to 6:10 4.96894 4.96930 4.96943 4.96824 4.97068 4.97023
9/18/2020 06:00 to 5:10 4.97094 4.96814 4.97153 4.97052 4.97350 4.97285
9/18/2020 05:00 to 4:10 4.97200 4.97298 4.97290 4.97395 4.97350 4.97343
9/18/2020 04:00 to 3:10 4.97357 4.97414 4.97399 4.97378 4.97290 4.97277
9/18/2020 03:00 to 2:10 4.97361 4.97411 4.97422 4.97420 4.97312 4.97043
9/18/2020 02:00 to 1:10 4.97217 4.97241 4.97144 4.97233 4.97227 4.97073
9/18/2020 01:00 to 0:10 4.97110 4.97244 4.97218 4.97128 4.97040 4.97061

 

 

 

Salinity [psu]     6 entries per hour
Showing data from 9/19/2020 (22:00:00 Z) to 9/18/2020 (00:00:01 Z)
Previous Next [ Day | 3-Days | 7-Days ]
First Last
Prev [ Day | 3-Days | 7-Days ] Next
First Last

Start Time:     :
End Time:     :     
Time (in GMT) :00 :50 :40 :30 :20 :10
Previous Next [ Day | 3-Days | 7-Days ]
First Last
Prev [ Day | 3-Days | 7-Days ] Next
First Last


123 => good data
MM => data is determined as missing
-- => data not received/configured
Back to Top Back to Top
9/19/2020 22:00 to 21:10 33.95 33.96 33.96 33.96 33.96 33.96
9/19/2020 21:00 to 20:10 33.96 33.97 33.98 33.98 33.98 33.98
9/19/2020 20:00 to 19:10 33.98 33.98 33.98 33.98 33.98 33.98
9/19/2020 19:00 to 18:10 33.98 33.98 33.98 33.98 33.98 33.98
9/19/2020 18:00 to 17:10 33.98 33.98 33.98 33.98 33.99 33.98
9/19/2020 17:00 to 16:10 33.99 33.99 33.98 33.98 33.98 33.98
9/19/2020 16:00 to 15:10 33.98 33.98 33.98 33.98 33.98 33.98
9/19/2020 15:00 to 14:10 33.98 33.98 33.98 33.97 33.98 33.97
9/19/2020 14:00 to 13:10 33.97 33.97 33.97 33.98 33.97 33.97
9/19/2020 13:00 to 12:10 33.97 33.97 33.97 33.97 33.97 33.97
9/19/2020 12:00 to 11:10 33.98 33.98 33.99 33.99 33.98 33.98
9/19/2020 11:00 to 10:10 33.98 33.98 33.97 33.98 33.98 33.98
9/19/2020 10:00 to 9:10 33.98 33.98 33.98 33.99 33.98 33.97
9/19/2020 09:00 to 8:10 33.97 33.97 33.97 33.97 33.98 33.97
9/19/2020 08:00 to 7:10 33.97 33.96 33.97 33.97 33.97 33.98
9/19/2020 07:00 to 6:10 33.97 33.97 33.97 33.97 33.97 33.97
9/19/2020 06:00 to 5:10 33.97 33.97 33.98 33.97 33.97 33.97
9/19/2020 05:00 to 4:10 33.97 33.97 33.97 33.97 33.97 33.97
9/19/2020 04:00 to 3:10 33.97 33.97 33.97 33.97 33.97 33.97
9/19/2020 03:00 to 2:10 33.97 33.98 33.97 33.98 33.98 33.97
9/19/2020 02:00 to 1:10 33.97 33.98 33.98 33.98 33.98 33.98
9/19/2020 01:00 to 0:10 33.99 33.98 33.98 33.98 33.99 33.99
9/19/2020 00:00 to 23:10 33.99 33.99 33.99 33.99 33.99 33.99
9/18/2020 23:00 to 22:10 33.99 33.99 33.99 33.99 33.99 34.00
9/18/2020 22:00 to 21:10 34.00 33.99 33.99 33.99 33.99 34.00
9/18/2020 21:00 to 20:10 34.00 33.99 34.00 34.00 34.00 34.00
9/18/2020 20:00 to 19:10 34.00 34.00 34.00 34.00 34.00 34.01
9/18/2020 19:00 to 18:10 34.00 34.01 34.01 34.01 34.02 34.02
9/18/2020 18:00 to 17:10 34.02 34.02 34.02 34.03 34.03 34.03
9/18/2020 17:00 to 16:10 34.03 34.03 34.03 34.03 34.03 34.04
9/18/2020 16:00 to 15:10 34.04 34.04 34.04 34.04 34.04 34.04
9/18/2020 15:00 to 14:10 34.04 34.03 34.02 34.03 34.03 34.02
9/18/2020 14:00 to 13:10 34.02 34.02 34.02 34.01 34.02 34.02
9/18/2020 13:00 to 12:10 34.02 34.02 34.01 34.01 34.01 34.02
9/18/2020 12:00 to 11:10 34.02 34.01 34.01 34.01 34.02 34.02
9/18/2020 11:00 to 10:10 34.02 34.02 34.02 34.02 34.02 34.02
9/18/2020 10:00 to 9:10 34.02 34.02 34.01 34.02 34.01 34.02
9/18/2020 09:00 to 8:10 34.01 34.01 34.01 34.01 34.01 34.01
9/18/2020 08:00 to 7:10 34.02 34.01 34.01 34.01 34.01 34.00
9/18/2020 07:00 to 6:10 34.00 34.00 33.99 34.00 34.00 33.99
9/18/2020 06:00 to 5:10 33.99 34.00 33.99 33.98 33.98 33.99
9/18/2020 05:00 to 4:10 33.98 33.98 33.97 33.97 33.98 33.97
9/18/2020 04:00 to 3:10 33.98 33.97 33.97 33.98 33.97 33.97
9/18/2020 03:00 to 2:10 33.97 33.98 33.98 33.98 33.99 33.99
9/18/2020 02:00 to 1:10 33.99 33.99 33.99 33.99 33.99 33.99
9/18/2020 01:00 to 0:10 33.99 33.99 34.00 34.00 34.00 34.00